createdAt,value
2016-09-30T03:01:36.897Z,21.35
2016-09-30T03:02:02.458Z,21.39
2016-09-30T03:02:28.338Z,21.36
2016-09-30T03:02:54.103Z,21.41
2016-09-30T03:03:19.981Z,21.35
2016-09-30T03:03:45.702Z,21.38
2016-09-30T03:04:11.600Z,21.34
2016-09-30T03:04:37.307Z,21.39
2016-09-30T03:05:03.318Z,21.35
2016-09-30T03:05:28.942Z,21.42
2016-09-30T03:05:54.863Z,21.42
2016-09-30T03:06:20.656Z,21.46
2016-09-30T03:06:46.655Z,21.41
2016-09-30T03:07:12.588Z,21.42
2016-09-30T03:07:38.161Z,21.38
2016-09-30T03:08:03.730Z,21.42
2016-09-30T03:08:29.361Z,21.41
2016-09-30T03:08:55.000Z,21.45
2016-09-30T03:09:20.610Z,21.34
2016-09-30T03:09:46.259Z,21.45
2016-09-30T03:10:11.786Z,21.39
2016-09-30T03:10:37.441Z,21.39
2016-09-30T03:11:03.009Z,21.41
2016-09-30T03:11:28.611Z,21.48
2016-09-30T03:11:54.186Z,21.39
2016-09-30T03:12:19.810Z,21.45
2016-09-30T03:12:45.480Z,21.41
2016-09-30T03:13:11.076Z,21.46
2016-09-30T03:13:36.848Z,21.44
2016-09-30T03:14:02.513Z,21.39
2016-09-30T03:14:28.120Z,21.44
2016-09-30T03:14:53.704Z,21.39
2016-09-30T03:15:19.354Z,21.45
2016-09-30T03:15:44.933Z,21.39
2016-09-30T03:16:10.481Z,21.36
2016-09-30T03:16:36.046Z,21.41
2016-09-30T03:17:01.679Z,21.41
2016-09-30T03:17:27.372Z,21.38
2016-09-30T03:17:52.930Z,21.41
2016-09-30T03:18:19.050Z,21.38
2016-09-30T03:18:44.642Z,21.38
2016-09-30T03:19:10.198Z,21.34
2016-09-30T03:19:35.802Z,21.39
2016-09-30T03:20:01.424Z,21.41
2016-09-30T03:20:27.054Z,21.39
2016-09-30T03:20:52.672Z,21.39
2016-09-30T03:21:18.240Z,21.38
2016-09-30T03:21:43.800Z,21.39
2016-09-30T03:22:09.452Z,21.38
2016-09-30T03:23:02.395Z,21.38
2016-09-30T03:23:27.975Z,21.36
2016-09-30T03:23:53.629Z,21.41
2016-09-30T03:24:19.192Z,21.39
2016-09-30T03:24:44.839Z,21.38
2016-09-30T03:25:11.578Z,21.36
2016-09-30T03:25:37.174Z,21.38
2016-09-30T03:26:02.792Z,21.36
2016-09-30T03:26:28.355Z,21.38
2016-09-30T03:26:53.994Z,21.38
2016-09-30T03:27:19.577Z,21.41
2016-09-30T03:27:45.143Z,21.38
2016-09-30T03:28:10.801Z,21.36
2016-09-30T03:28:36.364Z,21.41
2016-09-30T03:29:01.930Z,21.35
2016-09-30T03:29:27.560Z,21.39
2016-09-30T03:29:53.134Z,21.39
2016-09-30T03:30:18.681Z,21.41
2016-09-30T03:30:44.222Z,21.41
2016-09-30T03:31:09.882Z,21.32
2016-09-30T03:31:35.440Z,21.35
2016-09-30T03:32:01.109Z,21.35
2016-09-30T03:32:26.830Z,21.3
2016-09-30T03:32:52.368Z,21.39
2016-09-30T03:33:18.002Z,21.36
2016-09-30T03:33:43.642Z,21.38
2016-09-30T03:34:09.231Z,21.3
2016-09-30T03:34:34.911Z,21.38
2016-09-30T03:35:00.533Z,21.35
2016-09-30T03:35:26.122Z,21.38
2016-09-30T03:36:37.509Z,21.39
2016-09-30T03:38:42.026Z,21.35
2016-09-30T03:39:07.584Z,21.36
2016-09-30T03:39:33.893Z,21.35
2016-09-30T03:39:59.542Z,21.35
2016-09-30T03:40:25.082Z,21.34
2016-09-30T03:40:50.704Z,21.35
2016-09-30T03:41:16.278Z,21.36
2016-09-30T03:41:41.997Z,21.3
2016-09-30T03:42:07.548Z,21.29
2016-09-30T03:42:33.128Z,21.36
2016-09-30T03:42:58.774Z,21.39
2016-09-30T03:43:24.251Z,21.38
2016-09-30T03:43:49.832Z,21.35
2016-09-30T03:44:15.415Z,21.35
2016-09-30T03:44:41.029Z,21.41
2016-09-30T03:45:06.582Z,21.38
2016-09-30T03:45:32.152Z,21.38
2016-09-30T03:45:57.781Z,21.39
2016-09-30T03:46:23.267Z,21.35
2016-09-30T03:46:48.880Z,21.36
2016-09-30T03:47:14.439Z,21.39
2016-09-30T03:47:40.103Z,21.29
2016-09-30T03:48:05.763Z,21.39
2016-09-30T03:48:31.349Z,21.32
2016-09-30T03:48:56.913Z,21.35
2016-09-30T03:49:22.493Z,21.35
2016-09-30T03:49:48.167Z,21.35
2016-09-30T03:50:13.727Z,21.3
2016-09-30T03:50:39.352Z,21.3
2016-09-30T03:51:04.944Z,21.35
2016-09-30T03:51:30.572Z,21.35
2016-09-30T03:51:56.129Z,21.32
2016-09-30T03:52:21.738Z,21.32
2016-09-30T03:52:47.318Z,21.29
2016-09-30T03:53:12.947Z,21.36
2016-09-30T03:53:38.531Z,21.29
2016-09-30T03:54:04.174Z,21.29
2016-09-30T03:54:29.743Z,21.35
2016-09-30T03:54:55.334Z,21.38
2016-09-30T03:55:20.961Z,21.34
2016-09-30T03:55:46.480Z,21.34
2016-09-30T03:56:12.090Z,21.34
2016-09-30T03:56:37.747Z,21.26
2016-09-30T03:57:03.368Z,21.39
2016-09-30T03:57:28.998Z,21.3
2016-09-30T03:57:54.588Z,21.35
2016-09-30T03:58:20.163Z,21.32
2016-09-30T03:58:45.710Z,21.34
2016-09-30T03:59:11.333Z,21.36
2016-09-30T03:59:36.881Z,21.29
2016-09-30T04:00:02.556Z,21.35
2016-09-30T04:00:29.039Z,21.27
2016-09-30T04:00:54.622Z,21.36
2016-09-30T04:01:20.228Z,21.34
2016-09-30T04:01:46.074Z,21.36
2016-09-30T04:02:11.588Z,21.35
2016-09-30T04:02:37.252Z,21.35
2016-09-30T04:03:02.801Z,21.35
2016-09-30T04:03:28.433Z,21.35
2016-09-30T04:03:53.998Z,21.34
2016-09-30T04:04:19.620Z,21.36
2016-09-30T04:04:45.209Z,21.35
2016-09-30T04:05:10.755Z,21.35
2016-09-30T04:05:36.419Z,21.35
2016-09-30T04:06:01.994Z,21.35
2016-09-30T04:06:27.592Z,21.34
2016-09-30T04:06:53.158Z,21.3
2016-09-30T04:07:18.739Z,21.32
2016-09-30T04:07:44.405Z,21.3
2016-09-30T04:08:09.961Z,21.34
2016-09-30T04:08:35.513Z,21.29
2016-09-30T04:09:01.043Z,21.27
2016-09-30T04:09:26.653Z,21.34
2016-09-30T04:09:52.193Z,21.32
2016-09-30T04:10:17.743Z,21.36
2016-09-30T04:10:43.388Z,21.32
2016-09-30T04:11:08.942Z,21.29
2016-09-30T04:11:34.514Z,21.35
2016-09-30T04:12:00.067Z,21.34
2016-09-30T04:12:25.802Z,21.32
2016-09-30T04:12:51.402Z,21.35
2016-09-30T04:13:16.972Z,21.32
2016-09-30T04:13:42.609Z,21.3
2016-09-30T04:14:08.236Z,21.36
2016-09-30T04:14:33.808Z,21.3
2016-09-30T04:14:59.428Z,21.3
2016-09-30T04:15:24.990Z,21.3
2016-09-30T04:15:50.573Z,21.29
2016-09-30T04:16:16.138Z,21.34
2016-09-30T04:16:41.774Z,21.3
2016-09-30T04:17:07.396Z,21.35
2016-09-30T04:17:32.957Z,21.29
2016-09-30T04:17:58.520Z,21.3
2016-09-30T04:18:24.150Z,21.26
2016-09-30T04:18:49.800Z,21.3
2016-09-30T04:19:15.353Z,21.3
2016-09-30T04:19:40.931Z,21.3
2016-09-30T04:20:06.625Z,21.3
2016-09-30T04:20:32.176Z,21.35
2016-09-30T04:20:57.699Z,21.34
2016-09-30T04:21:23.368Z,21.32
2016-09-30T04:21:48.893Z,21.29
2016-09-30T04:22:14.549Z,21.38
2016-09-30T04:22:40.123Z,21.27
2016-09-30T04:23:05.756Z,21.34
2016-09-30T04:23:31.370Z,21.29
2016-09-30T04:23:56.969Z,21.27
2016-09-30T04:24:22.630Z,21.29
2016-09-30T04:25:30.940Z,21.29
2016-09-30T04:26:29.015Z,21.32
2016-09-30T04:26:54.624Z,21.3
2016-09-30T04:27:20.171Z,21.24
2016-09-30T04:27:45.760Z,21.34
2016-09-30T04:28:38.717Z,21.34
2016-09-30T04:29:04.261Z,21.24
2016-09-30T04:29:29.858Z,21.34
2016-09-30T04:29:56.833Z,21.27
2016-09-30T04:32:10.802Z,21.29
2016-09-30T04:32:36.384Z,21.29
2016-09-30T04:33:02.054Z,21.26
2016-09-30T04:33:27.675Z,21.35
2016-09-30T04:34:15.839Z,21.29
2016-09-30T04:35:13.915Z,21.29
2016-09-30T04:35:39.545Z,21.3
2016-09-30T04:36:05.113Z,21.34
2016-09-30T04:36:30.672Z,21.23
2016-09-30T04:36:56.232Z,21.27
2016-09-30T04:37:21.924Z,21.34
2016-09-30T04:37:47.472Z,21.23
2016-09-30T04:38:13.098Z,21.29
2016-09-30T04:38:38.763Z,21.26
2016-09-30T04:39:04.332Z,21.32
2016-09-30T04:39:30.111Z,21.23
2016-09-30T04:39:55.670Z,21.23
2016-09-30T04:40:21.329Z,21.26
2016-09-30T04:41:09.222Z,21.3
2016-09-30T04:41:34.782Z,21.27
2016-09-30T04:42:00.332Z,21.34
2016-09-30T04:42:25.929Z,21.27
2016-09-30T04:42:51.537Z,21.26
2016-09-30T04:43:17.196Z,21.26
2016-09-30T04:43:42.860Z,21.23
2016-09-30T04:44:08.406Z,21.23
2016-09-30T04:44:34.012Z,21.27
2016-09-30T04:44:59.603Z,21.21
2016-09-30T04:45:25.307Z,21.17
2016-09-30T04:45:50.980Z,21.14
2016-09-30T04:46:16.558Z,21.21
2016-09-30T04:46:42.229Z,21.21
2016-09-30T04:47:08.057Z,21.19
2016-09-30T04:47:33.613Z,21.24
2016-09-30T04:47:59.257Z,21.24
2016-09-30T04:48:24.941Z,21.19
2016-09-30T04:48:50.502Z,21.2
2016-09-30T04:49:16.251Z,21.21
2016-09-30T04:49:41.814Z,21.27
2016-09-30T04:50:07.387Z,21.23
2016-09-30T04:50:33.051Z,21.27
2016-09-30T04:50:58.611Z,21.24
2016-09-30T04:51:24.172Z,21.26
2016-09-30T04:51:49.858Z,21.24
2016-09-30T04:52:15.449Z,21.3
2016-09-30T04:52:41.721Z,21.26
2016-09-30T04:53:07.334Z,21.26
2016-09-30T04:53:33.023Z,21.23
2016-09-30T04:53:58.619Z,21.29
2016-09-30T04:54:24.192Z,21.24
2016-09-30T04:54:49.801Z,21.27
2016-09-30T04:55:15.386Z,21.23
2016-09-30T04:55:41.014Z,21.34
2016-09-30T04:56:06.564Z,21.29
2016-09-30T04:56:32.248Z,21.27
2016-09-30T04:56:57.803Z,21.24
2016-09-30T04:57:23.390Z,21.24
2016-09-30T04:57:49.045Z,21.26
2016-09-30T04:58:14.617Z,21.29
2016-09-30T04:58:40.323Z,21.29
2016-09-30T04:59:05.998Z,21.24
2016-09-30T05:00:09.357Z,21.34
2016-09-30T05:00:34.970Z,21.23
2016-09-30T05:01:22.841Z,21.26
2016-09-30T05:01:48.500Z,21.23
2016-09-30T05:02:14.129Z,21.27
2016-09-30T05:02:39.689Z,21.3
2016-09-30T05:03:05.453Z,21.26
2016-09-30T05:03:31.075Z,21.26
2016-09-30T05:03:56.919Z,21.26
2016-09-30T05:04:22.497Z,21.24
2016-09-30T05:04:48.113Z,21.19
2016-09-30T05:05:13.689Z,21.24
2016-09-30T05:05:39.307Z,21.32
2016-09-30T05:06:05.007Z,21.23
2016-09-30T05:06:30.562Z,21.26
2016-09-30T05:06:56.241Z,21.27
2016-09-30T05:07:21.772Z,21.26
2016-09-30T05:07:47.423Z,21.27
2016-09-30T05:08:12.978Z,21.29
2016-09-30T05:08:38.561Z,21.3
2016-09-30T05:09:04.138Z,21.29
2016-09-30T05:09:29.711Z,21.3
2016-09-30T05:09:55.290Z,21.27
2016-09-30T05:10:20.853Z,21.34
2016-09-30T05:10:46.477Z,21.32
2016-09-30T05:11:12.095Z,21.26
2016-09-30T05:11:37.637Z,21.32
2016-09-30T05:12:03.187Z,21.29
2016-09-30T05:12:28.756Z,21.27
2016-09-30T05:12:54.373Z,21.29
2016-09-30T05:13:19.937Z,21.29
2016-09-30T05:13:45.514Z,21.34
2016-09-30T05:14:11.161Z,21.21
2016-09-30T05:14:36.888Z,21.27
2016-09-30T05:15:02.548Z,21.3
2016-09-30T05:15:28.113Z,21.3
2016-09-30T05:15:53.837Z,21.24
2016-09-30T05:16:19.392Z,21.26
2016-09-30T05:16:44.964Z,21.26
2016-09-30T05:17:10.780Z,21.3
2016-09-30T05:17:36.464Z,21.23
2016-09-30T05:18:02.150Z,21.29
2016-09-30T05:18:27.865Z,21.23
2016-09-30T05:18:53.543Z,21.29
2016-09-30T05:19:19.109Z,21.29
2016-09-30T05:19:44.679Z,21.27
2016-09-30T05:20:10.375Z,21.27
2016-09-30T05:20:35.961Z,21.23
2016-09-30T05:21:01.561Z,21.21
2016-09-30T05:21:27.161Z,21.26
2016-09-30T05:21:52.715Z,21.26
2016-09-30T05:22:18.281Z,21.24
2016-09-30T05:22:44.862Z,21.27
2016-09-30T05:23:10.548Z,21.19
2016-09-30T05:23:36.131Z,21.27
2016-09-30T05:24:01.756Z,21.26
2016-09-30T05:24:27.441Z,21.23
2016-09-30T05:24:53.039Z,21.26
2016-09-30T05:25:19.431Z,21.27
2016-09-30T05:25:45.065Z,21.27
2016-09-30T05:26:10.642Z,21.3
2016-09-30T05:26:36.223Z,21.27
2016-09-30T05:27:01.794Z,21.24
2016-09-30T05:27:27.486Z,21.27
2016-09-30T05:27:53.049Z,21.21
2016-09-30T05:28:18.708Z,21.3
2016-09-30T05:28:44.477Z,21.27
2016-09-30T05:29:10.213Z,21.26
2016-09-30T05:29:35.973Z,21.29
2016-09-30T05:30:01.633Z,21.29
2016-09-30T05:31:32.234Z,21.26
2016-09-30T05:31:58.022Z,21.3
2016-09-30T05:32:23.662Z,21.26
2016-09-30T05:32:49.231Z,21.34
2016-09-30T05:33:14.827Z,21.26
2016-09-30T05:33:40.385Z,21.26
2016-09-30T05:34:05.929Z,21.34
2016-09-30T05:34:31.563Z,21.3
2016-09-30T05:34:57.108Z,21.3
2016-09-30T05:35:22.679Z,21.27
2016-09-30T05:35:48.223Z,21.27
2016-09-30T05:36:13.804Z,21.36
2016-09-30T05:36:39.372Z,21.34
2016-09-30T05:37:04.957Z,21.26
2016-09-30T05:37:30.579Z,21.34
2016-09-30T05:37:56.172Z,21.27
2016-09-30T05:38:21.823Z,21.29
2016-09-30T05:38:47.403Z,21.29
2016-09-30T05:39:12.992Z,21.29
2016-09-30T05:39:38.668Z,21.35
2016-09-30T05:40:04.259Z,21.34
2016-09-30T05:40:29.855Z,21.27
2016-09-30T05:40:55.493Z,21.36
2016-09-30T05:41:21.093Z,21.3
2016-09-30T05:41:46.803Z,21.32
2016-09-30T05:42:12.392Z,21.27
2016-09-30T05:42:38.116Z,21.3
2016-09-30T05:43:03.721Z,21.29
2016-09-30T05:43:29.274Z,21.34
2016-09-30T05:43:55.006Z,21.27
2016-09-30T05:44:20.556Z,21.32
2016-09-30T05:44:46.134Z,21.35
2016-09-30T05:45:11.830Z,21.32
2016-09-30T05:45:37.359Z,21.32
2016-09-30T05:46:02.949Z,21.35
2016-09-30T05:46:28.523Z,21.32
2016-09-30T05:47:31.747Z,21.32
2016-09-30T05:47:57.352Z,21.24
2016-09-30T05:48:22.963Z,21.34
2016-09-30T05:48:48.584Z,21.27
2016-09-30T05:49:14.146Z,21.35
2016-09-30T05:49:39.805Z,21.34
2016-09-30T05:50:05.295Z,21.35
2016-09-30T05:50:30.980Z,21.34
2016-09-30T05:50:56.555Z,21.34
2016-09-30T05:51:22.109Z,21.3
2016-09-30T05:51:47.653Z,21.3
2016-09-30T05:52:13.247Z,21.36
2016-09-30T05:52:38.913Z,21.32
2016-09-30T05:53:04.570Z,21.3
2016-09-30T05:53:30.192Z,21.36
2016-09-30T05:53:55.856Z,21.38
2016-09-30T05:54:21.303Z,21.35
2016-09-30T05:54:46.911Z,21.36
2016-09-30T05:55:12.558Z,21.36
2016-09-30T05:55:38.211Z,21.32
2016-09-30T05:56:03.768Z,21.29
2016-09-30T05:56:29.371Z,21.36
2016-09-30T05:56:54.919Z,21.35
2016-09-30T05:57:20.481Z,21.36
2016-09-30T05:57:46.147Z,21.38
2016-09-30T05:58:11.700Z,21.35
2016-09-30T05:58:37.248Z,21.38
2016-09-30T05:59:02.804Z,21.36
2016-09-30T05:59:28.440Z,21.41
2016-09-30T05:59:53.998Z,21.41
2016-09-30T06:00:19.574Z,21.34
2016-09-30T06:01:23.037Z,21.41
2016-09-30T06:01:48.593Z,21.42
2016-09-30T06:02:14.151Z,21.38
2016-09-30T06:02:39.724Z,21.35
2016-09-30T06:03:32.693Z,21.39
2016-09-30T06:03:58.246Z,21.36
2016-09-30T06:04:23.793Z,21.34
2016-09-30T06:04:49.380Z,21.38
2016-09-30T06:05:14.953Z,21.38
2016-09-30T06:05:40.508Z,21.38
2016-09-30T06:06:06.083Z,21.35
2016-09-30T06:06:31.678Z,21.39
2016-09-30T06:06:57.269Z,21.35
2016-09-30T06:07:22.838Z,21.41
2016-09-30T06:07:48.384Z,21.38
2016-09-30T06:08:13.936Z,21.39
2016-09-30T06:08:39.500Z,21.44
2016-09-30T06:09:05.082Z,21.34
2016-09-30T06:09:30.666Z,21.42
2016-09-30T06:09:56.229Z,21.34
2016-09-30T06:10:21.793Z,21.39
2016-09-30T06:10:47.355Z,21.36
2016-09-30T06:11:13.048Z,21.45
2016-09-30T06:11:38.594Z,21.39
2016-09-30T06:12:04.161Z,21.39
2016-09-30T06:12:29.720Z,21.41
2016-09-30T06:12:55.379Z,21.39
2016-09-30T06:13:20.950Z,21.41
2016-09-30T06:13:46.596Z,21.45
2016-09-30T06:14:39.624Z,21.46
2016-09-30T06:15:05.179Z,21.38
2016-09-30T06:15:30.752Z,21.38
2016-09-30T06:15:56.363Z,21.44
2016-09-30T06:16:21.955Z,21.38
2016-09-30T06:16:47.526Z,21.38
2016-09-30T06:17:13.087Z,21.42
2016-09-30T06:17:38.648Z,21.36
2016-09-30T06:18:04.209Z,21.39
2016-09-30T06:18:29.781Z,21.45
2016-09-30T06:18:55.344Z,21.5
2016-09-30T06:19:20.902Z,21.42
2016-09-30T06:19:46.547Z,21.51
2016-09-30T06:20:12.109Z,21.44
2016-09-30T06:20:37.664Z,21.39
2016-09-30T06:21:03.214Z,21.46
2016-09-30T06:21:28.878Z,21.38
2016-09-30T06:21:54.436Z,21.39
2016-09-30T06:22:19.985Z,21.46
2016-09-30T06:22:45.569Z,21.44
2016-09-30T06:23:11.104Z,21.46
2016-09-30T06:23:36.651Z,21.5
2016-09-30T06:24:02.212Z,21.46
2016-09-30T06:24:27.770Z,21.41
2016-09-30T06:24:53.307Z,21.41
2016-09-30T06:25:46.322Z,21.44
2016-09-30T06:26:11.888Z,21.45
2016-09-30T06:26:37.489Z,21.41
2016-09-30T06:27:03.049Z,21.5
2016-09-30T06:27:28.607Z,21.38
2016-09-30T06:27:54.174Z,21.48
2016-09-30T06:28:19.727Z,21.46
2016-09-30T06:28:45.297Z,21.48
2016-09-30T06:29:10.843Z,21.5
2016-09-30T06:29:36.393Z,21.42
2016-09-30T06:30:01.938Z,21.46
2016-09-30T06:30:27.487Z,21.44
2016-09-30T06:30:53.068Z,21.41
2016-09-30T06:31:18.623Z,21.44
2016-09-30T06:31:44.176Z,21.41
2016-09-30T06:32:09.721Z,21.48
2016-09-30T06:32:35.263Z,21.5
2016-09-30T06:33:00.786Z,21.48
2016-09-30T06:33:26.357Z,21.5
2016-09-30T06:33:51.987Z,21.5
2016-09-30T06:34:17.542Z,21.48
2016-09-30T06:34:43.097Z,21.46
2016-09-30T06:35:08.654Z,21.48
2016-09-30T06:35:34.179Z,21.48
2016-09-30T06:35:59.712Z,21.54
2016-09-30T06:36:25.278Z,21.5
2016-09-30T06:36:50.812Z,21.51
2016-09-30T06:37:16.365Z,21.5
2016-09-30T06:37:41.917Z,21.51
2016-09-30T06:38:07.474Z,21.5
2016-09-30T06:38:33.023Z,21.51
2016-09-30T06:38:58.547Z,21.44
2016-09-30T06:39:24.097Z,21.56
2016-09-30T06:39:49.672Z,21.5
2016-09-30T06:40:15.212Z,21.48
2016-09-30T06:40:40.776Z,21.48
2016-09-30T06:41:06.296Z,21.45
2016-09-30T06:41:31.836Z,21.48
2016-09-30T06:41:57.377Z,21.5
2016-09-30T06:42:22.925Z,21.46
2016-09-30T06:42:48.508Z,21.53
2016-09-30T06:43:14.105Z,21.48
2016-09-30T06:43:39.655Z,21.5
2016-09-30T06:44:05.197Z,21.48
2016-09-30T06:44:30.754Z,21.5
2016-09-30T06:44:56.286Z,21.46
2016-09-30T06:45:21.857Z,21.56
2016-09-30T06:45:47.419Z,21.51
2016-09-30T06:46:12.987Z,21.54
2016-09-30T06:46:38.529Z,21.51
2016-09-30T06:47:04.066Z,21.53
2016-09-30T06:47:29.651Z,21.5
2016-09-30T06:47:55.193Z,21.51
2016-09-30T06:48:20.755Z,21.54
2016-09-30T06:48:46.284Z,21.53
2016-09-30T06:49:11.846Z,21.6
2016-09-30T06:49:37.386Z,21.6
2016-09-30T06:50:02.975Z,21.51
2016-09-30T06:50:28.536Z,21.6
2016-09-30T06:50:54.089Z,21.66
2016-09-30T06:51:19.627Z,21.54
2016-09-30T06:51:45.310Z,21.6
2016-09-30T06:52:10.849Z,21.59
2016-09-30T06:52:36.417Z,21.56
2016-09-30T06:53:01.966Z,21.53
2016-09-30T06:53:27.517Z,21.61
2016-09-30T06:53:53.078Z,21.48
2016-09-30T06:54:18.636Z,21.6
2016-09-30T06:54:44.194Z,21.56
2016-09-30T06:55:09.759Z,21.6
2016-09-30T06:55:35.313Z,21.5
2016-09-30T06:56:00.991Z,21.57
2016-09-30T06:56:26.559Z,21.61
2016-09-30T06:56:52.143Z,21.61
2016-09-30T06:57:17.753Z,21.61
2016-09-30T06:57:43.335Z,21.63
2016-09-30T06:58:08.915Z,21.59
2016-09-30T06:58:34.550Z,21.59
2016-09-30T06:59:00.122Z,21.66
2016-09-30T06:59:25.892Z,21.6
2016-09-30T06:59:51.359Z,21.38
2016-09-30T07:00:39.241Z,21.36
2016-09-30T07:01:04.813Z,21.35
2016-09-30T07:01:30.382Z,21.35
2016-09-30T07:01:55.965Z,21.41
2016-09-30T07:02:21.560Z,21.45
2016-09-30T07:02:47.163Z,21.44
2016-09-30T07:03:12.731Z,21.42
2016-09-30T07:03:38.292Z,21.46
2016-09-30T07:04:03.861Z,21.53
2016-09-30T07:04:29.435Z,21.5
2016-09-30T07:04:55.021Z,21.5
2016-09-30T07:05:20.589Z,21.64
2016-09-30T07:05:46.156Z,21.67
2016-09-30T07:06:11.741Z,21.61
2016-09-30T07:06:37.313Z,21.61
2016-09-30T07:07:02.873Z,21.67
2016-09-30T07:07:28.455Z,21.64
2016-09-30T07:07:54.138Z,21.67
2016-09-30T07:08:19.691Z,21.67
2016-09-30T07:08:45.260Z,21.63
2016-09-30T07:09:10.822Z,21.63
2016-09-30T07:09:36.522Z,21.67
2016-09-30T07:10:02.086Z,21.76
2016-09-30T07:10:27.762Z,21.69
2016-09-30T07:10:53.321Z,21.72
2016-09-30T07:11:18.902Z,21.71
2016-09-30T07:11:44.520Z,21.71
2016-09-30T07:12:10.125Z,21.66
2016-09-30T07:12:35.694Z,21.74
2016-09-30T07:13:01.238Z,21.69
2016-09-30T07:13:26.928Z,21.78
2016-09-30T07:13:52.635Z,21.75
2016-09-30T07:14:18.070Z,21.71
2016-09-30T07:14:43.621Z,21.74
2016-09-30T07:15:09.215Z,21.66
2016-09-30T07:15:34.781Z,21.66
2016-09-30T07:16:00.337Z,21.71
2016-09-30T07:16:25.892Z,21.71
2016-09-30T07:16:51.537Z,21.69
2016-09-30T07:17:17.139Z,21.69
2016-09-30T07:17:42.707Z,21.67
2016-09-30T07:18:08.269Z,21.72
2016-09-30T07:18:33.836Z,21.72
2016-09-30T07:18:59.410Z,21.67
2016-09-30T07:19:24.965Z,21.71
2016-09-30T07:19:50.560Z,21.76
2016-09-30T07:20:16.119Z,21.66
2016-09-30T07:20:41.702Z,21.67
2016-09-30T07:21:39.807Z,21.76
2016-09-30T07:22:05.573Z,21.72
2016-09-30T07:22:31.184Z,21.72
2016-09-30T07:22:56.755Z,21.78
2016-09-30T07:23:22.310Z,21.76
2016-09-30T07:23:47.858Z,21.69
2016-09-30T07:24:13.415Z,21.74
2016-09-30T07:24:38.966Z,21.74
2016-09-30T07:25:04.565Z,21.76
2016-09-30T07:25:30.132Z,21.74
2016-09-30T07:25:55.672Z,21.76
2016-09-30T07:26:21.234Z,21.81
2016-09-30T07:26:46.784Z,21.79
2016-09-30T07:27:12.328Z,21.83
2016-09-30T07:27:37.907Z,21.79
2016-09-30T07:28:03.567Z,21.85
2016-09-30T07:28:29.119Z,21.81
2016-09-30T07:28:54.687Z,21.82
2016-09-30T07:29:20.245Z,21.76
2016-09-30T07:29:45.795Z,21.74
2016-09-30T07:30:11.351Z,21.79
2016-09-30T07:30:36.925Z,21.79
2016-09-30T07:31:02.478Z,21.81
2016-09-30T07:31:28.065Z,21.81
2016-09-30T07:31:53.676Z,21.78
2016-09-30T07:32:19.237Z,21.81
2016-09-30T07:32:44.797Z,21.79
2016-09-30T07:33:10.367Z,21.79
2016-09-30T07:33:36.012Z,21.81
2016-09-30T07:34:01.578Z,21.78
2016-09-30T07:34:27.137Z,21.81
2016-09-30T07:34:52.689Z,21.88
2016-09-30T07:35:18.238Z,21.9
2016-09-30T07:35:43.779Z,21.83
2016-09-30T07:36:09.443Z,21.85
2016-09-30T07:36:35.020Z,21.88
2016-09-30T07:37:00.576Z,21.81
2016-09-30T07:37:26.121Z,21.83
2016-09-30T07:37:51.697Z,21.85
2016-09-30T07:38:17.272Z,21.9
2016-09-30T07:38:42.819Z,21.81
2016-09-30T07:39:08.365Z,21.82
2016-09-30T07:39:33.985Z,21.83
2016-09-30T07:39:59.581Z,21.85
2016-09-30T07:40:25.184Z,21.9
2016-09-30T07:40:50.709Z,21.82
2016-09-30T07:41:16.266Z,21.85
2016-09-30T07:41:41.837Z,21.82
2016-09-30T07:42:39.947Z,21.85
2016-09-30T07:43:05.519Z,21.92
2016-09-30T07:43:31.076Z,21.88
2016-09-30T07:43:56.653Z,21.82
2016-09-30T07:44:22.244Z,21.91
2016-09-30T07:44:47.798Z,21.85
2016-09-30T07:45:13.351Z,21.9
2016-09-30T07:45:39.020Z,21.95
2016-09-30T07:46:04.590Z,21.83
2016-09-30T07:46:30.148Z,21.91
2016-09-30T07:46:55.807Z,21.91
2016-09-30T07:47:21.400Z,21.94
2016-09-30T07:47:46.997Z,21.91
2016-09-30T07:48:12.574Z,21.95
2016-09-30T07:48:38.130Z,21.94
2016-09-30T07:49:03.690Z,21.95
2016-09-30T07:49:29.275Z,21.9
2016-09-30T07:49:54.856Z,21.97
2016-09-30T07:50:20.409Z,21.92
2016-09-30T07:50:46.018Z,21.94
2016-09-30T07:51:11.621Z,21.94
2016-09-30T07:51:37.205Z,21.98
2016-09-30T07:52:02.787Z,21.99
2016-09-30T07:52:28.451Z,21.98
2016-09-30T07:52:54.008Z,22.01
2016-09-30T07:53:19.567Z,21.99
2016-09-30T07:53:45.136Z,21.97
2016-09-30T07:54:10.699Z,21.95
2016-09-30T07:54:36.268Z,21.94
2016-09-30T07:55:01.829Z,21.91
2016-09-30T07:55:27.436Z,21.98
2016-09-30T07:56:35.767Z,21.95
2016-09-30T07:57:01.324Z,21.98
2016-09-30T07:57:26.885Z,21.99
2016-09-30T07:57:52.445Z,21.97
2016-09-30T07:58:17.993Z,21.98
2016-09-30T07:58:43.588Z,22.02
2016-09-30T07:59:09.142Z,21.98
2016-09-30T07:59:34.723Z,22.04
2016-09-30T08:00:43.026Z,22.02
2016-09-30T08:01:08.598Z,21.97
2016-09-30T08:01:34.189Z,21.99
2016-09-30T08:01:59.742Z,22.02
2016-09-30T08:02:25.293Z,21.98
2016-09-30T08:02:50.950Z,22.04
2016-09-30T08:03:16.540Z,21.98
2016-09-30T08:03:42.105Z,21.94
2016-09-30T08:04:07.672Z,22.02
2016-09-30T08:04:33.285Z,22.01
2016-09-30T08:04:58.837Z,22.01
2016-09-30T08:05:24.419Z,21.94
2016-09-30T08:05:50.009Z,21.97
2016-09-30T08:06:49.252Z,21.97
2016-09-30T08:08:50.291Z,21.94
2016-09-30T08:09:15.847Z,21.94
2016-09-30T08:09:41.426Z,21.95
2016-09-30T08:10:07.000Z,21.91
2016-09-30T08:10:32.547Z,21.95
2016-09-30T08:10:58.121Z,21.94
2016-09-30T08:11:23.702Z,21.97
2016-09-30T08:11:49.268Z,21.92
2016-09-30T08:12:14.819Z,22.07
2016-09-30T08:12:40.375Z,21.99
2016-09-30T08:13:05.930Z,21.91
2016-09-30T08:13:31.553Z,22.01
2016-09-30T08:13:57.267Z,22.01
2016-09-30T08:14:22.848Z,21.94
2016-09-30T08:14:48.433Z,21.95
2016-09-30T08:15:36.332Z,22.04
2016-09-30T08:16:01.874Z,22.01
2016-09-30T08:16:27.441Z,22.07
2016-09-30T08:16:52.999Z,22.04
2016-09-30T08:17:40.819Z,21.99
2016-09-30T08:18:06.460Z,22.04
2016-09-30T08:18:32.033Z,22.01
2016-09-30T08:18:57.578Z,22.04
2016-09-30T08:19:23.157Z,21.91
2016-09-30T08:19:48.719Z,22.02
2016-09-30T08:20:14.285Z,22.02
2016-09-30T08:20:39.837Z,21.95
2016-09-30T08:21:05.411Z,21.99
2016-09-30T08:21:30.999Z,22.04
2016-09-30T08:21:56.559Z,22.12
2016-09-30T08:22:22.242Z,22.07
2016-09-30T08:22:47.810Z,22.06
2016-09-30T08:23:13.404Z,22.04
2016-09-30T08:23:38.979Z,22.01
2016-09-30T08:24:04.546Z,22.04
2016-09-30T08:24:30.196Z,22.01
2016-09-30T08:24:55.765Z,21.99
2016-09-30T08:25:21.388Z,22.1
2016-09-30T08:25:46.938Z,22.04
2016-09-30T08:26:12.521Z,22.01
2016-09-30T08:26:38.083Z,22.02
2016-09-30T08:27:03.652Z,22.12
2016-09-30T08:27:29.216Z,22.09
2016-09-30T08:27:54.786Z,22.1
2016-09-30T08:28:20.405Z,22.12
2016-09-30T08:28:45.967Z,22.14
2016-09-30T08:29:11.509Z,22.07
2016-09-30T08:29:37.127Z,22.1
2016-09-30T08:30:02.682Z,22.12
2016-09-30T08:30:28.240Z,22.04
2016-09-30T08:30:53.799Z,22.13
2016-09-30T08:31:19.377Z,22.06
2016-09-30T08:31:44.944Z,22.16
2016-09-30T08:32:10.494Z,22.1
2016-09-30T08:32:36.059Z,22.17
2016-09-30T08:33:01.629Z,22.16
2016-09-30T08:33:27.447Z,22.09
2016-09-30T08:33:53.020Z,22.1
2016-09-30T08:34:18.596Z,22.19
2016-09-30T08:34:44.155Z,22.16
2016-09-30T08:35:09.709Z,22.06
2016-09-30T08:35:35.278Z,22.09
2016-09-30T08:36:00.882Z,22.09
2016-09-30T08:36:26.446Z,22.16
2016-09-30T08:36:52.027Z,22.16
2016-09-30T08:37:17.568Z,22.16
2016-09-30T08:37:43.141Z,22.16
2016-09-30T08:38:08.738Z,22.17
2016-09-30T08:38:34.308Z,22.17
2016-09-30T08:38:59.883Z,22.17
2016-09-30T08:39:25.434Z,22.17
2016-09-30T08:39:50.985Z,22.17
2016-09-30T08:40:16.574Z,22.17
2016-09-30T08:40:42.143Z,22.19
2016-09-30T08:41:07.709Z,22.17
2016-09-30T08:41:33.281Z,22.2
2016-09-30T08:41:58.830Z,22.25
2016-09-30T08:42:24.507Z,22.14
2016-09-30T08:42:50.087Z,22.14
2016-09-30T08:43:15.706Z,22.2
2016-09-30T08:43:41.309Z,22.19
2016-09-30T08:44:06.877Z,22.22
2016-09-30T08:44:32.454Z,22.13
2016-09-30T08:44:58.068Z,22.22
2016-09-30T08:45:23.698Z,22.19
2016-09-30T08:45:49.280Z,22.25
2016-09-30T08:46:14.946Z,22.31
2016-09-30T08:46:40.589Z,22.29
2016-09-30T08:47:06.153Z,22.28
2016-09-30T08:48:14.479Z,22.28
2016-09-30T08:48:40.049Z,22.25
2016-09-30T08:49:05.606Z,22.25
2016-09-30T08:49:31.182Z,22.25
2016-09-30T08:49:56.746Z,22.29
2016-09-30T08:50:22.309Z,22.25
2016-09-30T08:50:47.885Z,22.27
2016-09-30T08:51:13.485Z,22.25